sensor_id;sensor_type;location;lat;lon;timestamp;temperature;humidity
51739;DHT22;37815;52.692;6.226;2023-07-16T00:01:26;21.80;84.40
51739;DHT22;37815;52.692;6.226;2023-07-16T00:06:27;21.80;84.30
51739;DHT22;37815;52.692;6.226;2023-07-16T00:11:27;21.80;84.30
51739;DHT22;37815;52.692;6.226;2023-07-16T00:16:28;21.70;84.20
51739;DHT22;37815;52.692;6.226;2023-07-16T00:21:29;21.70;84.20
51739;DHT22;37815;52.692;6.226;2023-07-16T00:26:30;21.70;84.20
51739;DHT22;37815;52.692;6.226;2023-07-16T00:31:30;21.70;84.20
51739;DHT22;37815;52.692;6.226;2023-07-16T00:36:31;21.60;84.10
51739;DHT22;37815;52.692;6.226;2023-07-16T00:41:32;21.60;84.10
51739;DHT22;37815;52.692;6.226;2023-07-16T00:46:33;21.60;84.00
51739;DHT22;37815;52.692;6.226;2023-07-16T00:51:34;21.60;84.00
51739;DHT22;37815;52.692;6.226;2023-07-16T00:56:37;21.50;83.90
51739;DHT22;37815;52.692;6.226;2023-07-16T01:01:39;21.50;83.90
51739;DHT22;37815;52.692;6.226;2023-07-16T01:06:43;21.50;83.90
51739;DHT22;37815;52.692;6.226;2023-07-16T01:11:46;21.50;84.00
51739;DHT22;37815;52.692;6.226;2023-07-16T01:16:46;21.50;84.20
51739;DHT22;37815;52.692;6.226;2023-07-16T01:22:10;21.40;84.20
51739;DHT22;37815;52.692;6.226;2023-07-16T01:32:55;21.30;84.20
51739;DHT22;37815;52.692;6.226;2023-07-16T01:37:57;21.30;84.30
51739;DHT22;37815;52.692;6.226;2023-07-16T01:42:58;21.30;84.30
51739;DHT22;37815;52.692;6.226;2023-07-16T01:48:30;21.30;84.30
51739;DHT22;37815;52.692;6.226;2023-07-16T01:53:31;21.30;84.00
51739;DHT22;37815;52.692;6.226;2023-07-16T01:58:32;21.20;84.00
51739;DHT22;37815;52.692;6.226;2023-07-16T02:03:32;21.20;83.90
51739;DHT22;37815;52.692;6.226;2023-07-16T02:08:33;21.10;83.90
51739;DHT22;37815;52.692;6.226;2023-07-16T02:13:33;21.10;83.80
51739;DHT22;37815;52.692;6.226;2023-07-16T02:18:34;21.10;83.80
51739;DHT22;37815;52.692;6.226;2023-07-16T02:23:34;21.10;83.70
51739;DHT22;37815;52.692;6.226;2023-07-16T02:28:35;21.10;83.60
51739;DHT22;37815;52.692;6.226;2023-07-16T02:33:36;21.10;83.60
51739;DHT22;37815;52.692;6.226;2023-07-16T02:38:36;21.00;83.50
51739;DHT22;37815;52.692;6.226;2023-07-16T02:43:37;21.00;83.50
51739;DHT22;37815;52.692;6.226;2023-07-16T02:48:39;21.00;83.50
51739;DHT22;37815;52.692;6.226;2023-07-16T02:53:39;21.00;83.40
51739;DHT22;37815;52.692;6.226;2023-07-16T02:58:40;20.90;83.40
51739;DHT22;37815;52.692;6.226;2023-07-16T03:03:45;20.90;83.40
51739;DHT22;37815;52.692;6.226;2023-07-16T03:08:45;20.90;83.30
51739;DHT22;37815;52.692;6.226;2023-07-16T03:13:46;20.90;83.30
51739;DHT22;37815;52.692;6.226;2023-07-16T03:18:47;20.90;83.40
51739;DHT22;37815;52.692;6.226;2023-07-16T03:23:48;20.80;83.30
51739;DHT22;37815;52.692;6.226;2023-07-16T03:28:49;20.80;83.30
51739;DHT22;37815;52.692;6.226;2023-07-16T03:33:49;20.80;83.30
51739;DHT22;37815;52.692;6.226;2023-07-16T03:38:50;20.80;83.30
51739;DHT22;37815;52.692;6.226;2023-07-16T03:43:50;20.80;83.30
51739;DHT22;37815;52.692;6.226;2023-07-16T03:48:53;20.70;83.20
51739;DHT22;37815;52.692;6.226;2023-07-16T03:53:54;20.70;83.20
51739;DHT22;37815;52.692;6.226;2023-07-16T03:58:55;20.70;83.30
51739;DHT22;37815;52.692;6.226;2023-07-16T04:03:55;20.70;83.20
51739;DHT22;37815;52.692;6.226;2023-07-16T04:08:56;20.70;83.20
51739;DHT22;37815;52.692;6.226;2023-07-16T04:13:57;20.60;83.20
51739;DHT22;37815;52.692;6.226;2023-07-16T04:18:57;20.60;83.20
51739;DHT22;37815;52.692;6.226;2023-07-16T04:24:05;20.60;83.20
51739;DHT22;37815;52.692;6.226;2023-07-16T04:29:06;20.60;83.30
51739;DHT22;37815;52.692;6.226;2023-07-16T04:34:07;20.60;83.30
51739;DHT22;37815;52.692;6.226;2023-07-16T04:39:07;20.60;83.30
51739;DHT22;37815;52.692;6.226;2023-07-16T04:44:08;20.60;83.30
51739;DHT22;37815;52.692;6.226;2023-07-16T04:49:08;20.50;83.20
51739;DHT22;37815;52.692;6.226;2023-07-16T04:54:10;20.60;83.30
51739;DHT22;37815;52.692;6.226;2023-07-16T04:59:10;20.50;83.20
51739;DHT22;37815;52.692;6.226;2023-07-16T05:04:11;20.50;83.20
51739;DHT22;37815;52.692;6.226;2023-07-16T05:09:11;20.50;83.30
51739;DHT22;37815;52.692;6.226;2023-07-16T05:14:12;20.50;83.30
51739;DHT22;37815;52.692;6.226;2023-07-16T05:19:13;20.50;83.20
51739;DHT22;37815;52.692;6.226;2023-07-16T05:24:13;20.50;83.30
51739;DHT22;37815;52.692;6.226;2023-07-16T05:29:14;20.50;83.30
51739;DHT22;37815;52.692;6.226;2023-07-16T05:34:15;20.50;83.30
51739;DHT22;37815;52.692;6.226;2023-07-16T05:39:15;20.50;83.20
51739;DHT22;37815;52.692;6.226;2023-07-16T05:44:16;20.50;83.20
51739;DHT22;37815;52.692;6.226;2023-07-16T05:49:17;20.50;83.20
51739;DHT22;37815;52.692;6.226;2023-07-16T05:54:17;20.40;83.20
51739;DHT22;37815;52.692;6.226;2023-07-16T05:59:18;20.50;83.30
51739;DHT22;37815;52.692;6.226;2023-07-16T06:04:19;20.40;83.20
51739;DHT22;37815;52.692;6.226;2023-07-16T06:09:19;20.40;83.20
51739;DHT22;37815;52.692;6.226;2023-07-16T06:14:20;20.40;83.20
51739;DHT22;37815;52.692;6.226;2023-07-16T06:19:20;20.50;83.30
51739;DHT22;37815;52.692;6.226;2023-07-16T06:24:21;20.50;83.20
51739;DHT22;37815;52.692;6.226;2023-07-16T06:29:22;20.40;83.20
51739;DHT22;37815;52.692;6.226;2023-07-16T06:34:23;20.50;83.20
51739;DHT22;37815;52.692;6.226;2023-07-16T06:39:24;20.50;83.20
51739;DHT22;37815;52.692;6.226;2023-07-16T06:44:25;20.50;83.20
51739;DHT22;37815;52.692;6.226;2023-07-16T06:49:26;20.50;83.10
51739;DHT22;37815;52.692;6.226;2023-07-16T06:54:26;20.50;83.10
51739;DHT22;37815;52.692;6.226;2023-07-16T06:59:27;20.50;83.10
51739;DHT22;37815;52.692;6.226;2023-07-16T07:04:28;20.50;83.00
51739;DHT22;37815;52.692;6.226;2023-07-16T07:09:28;20.50;83.60
51739;DHT22;37815;52.692;6.226;2023-07-16T07:14:29;20.50;83.00
51739;DHT22;37815;52.692;6.226;2023-07-16T07:19:30;20.50;83.00
51739;DHT22;37815;52.692;6.226;2023-07-16T07:24:32;20.50;82.90
51739;DHT22;37815;52.692;6.226;2023-07-16T07:29:33;20.50;82.90
51739;DHT22;37815;52.692;6.226;2023-07-16T07:34:33;20.60;82.90
51739;DHT22;37815;52.692;6.226;2023-07-16T07:39:34;20.60;82.80
51739;DHT22;37815;52.692;6.226;2023-07-16T07:44:34;20.60;82.80
51739;DHT22;37815;52.692;6.226;2023-07-16T07:49:35;20.60;82.80
51739;DHT22;37815;52.692;6.226;2023-07-16T07:54:36;20.70;82.80
51739;DHT22;37815;52.692;6.226;2023-07-16T07:59:36;20.70;82.70
51739;DHT22;37815;52.692;6.226;2023-07-16T08:04:37;20.70;82.60
51739;DHT22;37815;52.692;6.226;2023-07-16T08:09:38;20.80;82.60
51739;DHT22;37815;52.692;6.226;2023-07-16T08:14:38;20.80;82.40
51739;DHT22;37815;52.692;6.226;2023-07-16T08:19:39;20.80;82.40
51739;DHT22;37815;52.692;6.226;2023-07-16T08:24:39;20.80;82.40
51739;DHT22;37815;52.692;6.226;2023-07-16T08:29:40;20.80;82.40
51739;DHT22;37815;52.692;6.226;2023-07-16T08:34:41;20.90;82.50
51739;DHT22;37815;52.692;6.226;2023-07-16T08:39:41;20.80;82.40
51739;DHT22;37815;52.692;6.226;2023-07-16T08:44:42;20.80;82.50
51739;DHT22;37815;52.692;6.226;2023-07-16T08:49:56;20.80;82.50
51739;DHT22;37815;52.692;6.226;2023-07-16T08:54:57;20.90;82.50
51739;DHT22;37815;52.692;6.226;2023-07-16T08:59:59;21.00;82.40
51739;DHT22;37815;52.692;6.226;2023-07-16T09:05:00;21.00;82.30
51739;DHT22;37815;52.692;6.226;2023-07-16T09:10:01;21.00;82.20
51739;DHT22;37815;52.692;6.226;2023-07-16T09:15:02;21.00;82.20
51739;DHT22;37815;52.692;6.226;2023-07-16T09:20:03;21.00;82.30
51739;DHT22;37815;52.692;6.226;2023-07-16T09:25:08;21.00;82.40
51739;DHT22;37815;52.692;6.226;2023-07-16T09:30:15;21.00;82.40
51739;DHT22;37815;52.692;6.226;2023-07-16T09:35:17;21.10;82.40
51739;DHT22;37815;52.692;6.226;2023-07-16T09:40:18;21.10;82.20
51739;DHT22;37815;52.692;6.226;2023-07-16T09:45:19;21.10;82.20
51739;DHT22;37815;52.692;6.226;2023-07-16T09:50:23;21.10;82.00
51739;DHT22;37815;52.692;6.226;2023-07-16T09:55:25;21.20;82.00
51739;DHT22;37815;52.692;6.226;2023-07-16T10:00:27;21.20;82.10
51739;DHT22;37815;52.692;6.226;2023-07-16T10:05:28;21.10;82.20
51739;DHT22;37815;52.692;6.226;2023-07-16T10:15:53;21.10;82.40
51739;DHT22;37815;52.692;6.226;2023-07-16T10:20:59;21.10;82.40
51739;DHT22;37815;52.692;6.226;2023-07-16T10:26:01;21.20;82.40
51739;DHT22;37815;52.692;6.226;2023-07-16T10:31:06;21.20;82.40
51739;DHT22;37815;52.692;6.226;2023-07-16T10:36:18;21.20;82.30
51739;DHT22;37815;52.692;6.226;2023-07-16T10:41:20;21.20;82.20
51739;DHT22;37815;52.692;6.226;2023-07-16T10:46:25;21.30;82.20
51739;DHT22;37815;52.692;6.226;2023-07-16T10:51:26;21.40;82.20
51739;DHT22;37815;52.692;6.226;2023-07-16T10:56:27;21.40;82.00
51739;DHT22;37815;52.692;6.226;2023-07-16T11:01:29;21.50;82.00
51739;DHT22;37815;52.692;6.226;2023-07-16T11:06:30;21.50;81.90
51739;DHT22;37815;52.692;6.226;2023-07-16T11:11:31;21.50;82.00
51739;DHT22;37815;52.692;6.226;2023-07-16T11:16:35;21.40;82.10
51739;DHT22;37815;52.692;6.226;2023-07-16T11:21:37;21.50;82.20
51739;DHT22;37815;52.692;6.226;2023-07-16T11:26:37;21.40;82.30
51739;DHT22;37815;52.692;6.226;2023-07-16T11:31:39;21.40;82.40
51739;DHT22;37815;52.692;6.226;2023-07-16T11:36:42;21.40;82.60
51739;DHT22;37815;52.692;6.226;2023-07-16T11:41:42;21.40;82.60
51739;DHT22;37815;52.692;6.226;2023-07-16T11:46:53;21.40;82.50
51739;DHT22;37815;52.692;6.226;2023-07-16T11:51:54;21.40;82.50
51739;DHT22;37815;52.692;6.226;2023-07-16T11:56:54;21.50;82.40
51739;DHT22;37815;52.692;6.226;2023-07-16T12:01:55;21.50;82.30
51739;DHT22;37815;52.692;6.226;2023-07-16T12:06:56;21.50;82.30
51739;DHT22;37815;52.692;6.226;2023-07-16T12:11:57;21.50;82.50
51739;DHT22;37815;52.692;6.226;2023-07-16T12:16:58;21.40;82.60
51739;DHT22;37815;52.692;6.226;2023-07-16T12:21:58;21.50;82.70
51739;DHT22;37815;52.692;6.226;2023-07-16T12:26:59;21.40;82.70
51739;DHT22;37815;52.692;6.226;2023-07-16T12:32:00;21.50;82.80
51739;DHT22;37815;52.692;6.226;2023-07-16T12:37:01;21.40;82.70
51739;DHT22;37815;52.692;6.226;2023-07-16T12:42:01;21.50;82.80
51739;DHT22;37815;52.692;6.226;2023-07-16T12:47:02;21.50;82.70
51739;DHT22;37815;52.692;6.226;2023-07-16T12:52:03;21.40;82.60
51739;DHT22;37815;52.692;6.226;2023-07-16T12:57:04;21.40;82.60
51739;DHT22;37815;52.692;6.226;2023-07-16T13:02:05;21.40;82.60
51739;DHT22;37815;52.692;6.226;2023-07-16T13:07:06;21.40;82.60
51739;DHT22;37815;52.692;6.226;2023-07-16T13:12:07;21.50;82.60
51739;DHT22;37815;52.692;6.226;2023-07-16T13:17:08;21.50;82.50
51739;DHT22;37815;52.692;6.226;2023-07-16T13:22:09;21.50;82.50
51739;DHT22;37815;52.692;6.226;2023-07-16T13:27:19;21.50;82.40
51739;DHT22;37815;52.692;6.226;2023-07-16T13:32:20;21.50;82.20
51739;DHT22;37815;52.692;6.226;2023-07-16T13:37:21;21.60;82.10
51739;DHT22;37815;52.692;6.226;2023-07-16T13:42:21;21.70;81.90
51739;DHT22;37815;52.692;6.226;2023-07-16T13:47:23;21.70;81.80
51739;DHT22;37815;52.692;6.226;2023-07-16T13:52:23;21.70;81.80
51739;DHT22;37815;52.692;6.226;2023-07-16T13:57:24;21.70;81.80
51739;DHT22;37815;52.692;6.226;2023-07-16T14:02:25;21.60;81.80
51739;DHT22;37815;52.692;6.226;2023-07-16T14:07:25;21.70;81.60
51739;DHT22;37815;52.692;6.226;2023-07-16T14:12:26;21.90;81.50
51739;DHT22;37815;52.692;6.226;2023-07-16T14:17:26;21.90;81.20
51739;DHT22;37815;52.692;6.226;2023-07-16T14:22:27;21.90;81.20
51739;DHT22;37815;52.692;6.226;2023-07-16T14:27:28;21.90;81.30
51739;DHT22;37815;52.692;6.226;2023-07-16T14:32:29;21.90;81.50
51739;DHT22;37815;52.692;6.226;2023-07-16T14:37:31;21.90;81.50
51739;DHT22;37815;52.692;6.226;2023-07-16T14:42:32;21.80;81.50
51739;DHT22;37815;52.692;6.226;2023-07-16T14:47:33;21.90;81.70
51739;DHT22;37815;52.692;6.226;2023-07-16T14:52:34;21.90;81.80
51739;DHT22;37815;52.692;6.226;2023-07-16T14:57:36;21.80;82.10
51739;DHT22;37815;52.692;6.226;2023-07-16T15:02:38;21.70;82.60
51739;DHT22;37815;52.692;6.226;2023-07-16T15:07:38;21.60;82.80
51739;DHT22;37815;52.692;6.226;2023-07-16T15:12:39;21.50;82.70
51739;DHT22;37815;52.692;6.226;2023-07-16T15:17:41;21.60;82.90
51739;DHT22;37815;52.692;6.226;2023-07-16T15:22:41;21.50;82.90
51739;DHT22;37815;52.692;6.226;2023-07-16T15:27:42;21.70;82.80
51739;DHT22;37815;52.692;6.226;2023-07-16T15:32:42;21.90;82.40
51739;DHT22;37815;52.692;6.226;2023-07-16T15:37:43;22.10;82.20
51739;DHT22;37815;52.692;6.226;2023-07-16T15:42:44;22.10;82.30
51739;DHT22;37815;52.692;6.226;2023-07-16T15:47:45;21.90;82.40
51739;DHT22;37815;52.692;6.226;2023-07-16T15:52:51;21.80;82.70
51739;DHT22;37815;52.692;6.226;2023-07-16T15:57:53;21.80;82.60
51739;DHT22;37815;52.692;6.226;2023-07-16T16:02:54;21.80;82.40
51739;DHT22;37815;52.692;6.226;2023-07-16T16:08:18;22.00;82.00
51739;DHT22;37815;52.692;6.226;2023-07-16T16:13:23;22.20;81.70
51739;DHT22;37815;52.692;6.226;2023-07-16T16:18:23;22.30;81.70
51739;DHT22;37815;52.692;6.226;2023-07-16T16:23:24;22.30;81.50
51739;DHT22;37815;52.692;6.226;2023-07-16T16:28:25;22.20;81.30
51739;DHT22;37815;52.692;6.226;2023-07-16T16:33:26;22.10;81.60
51739;DHT22;37815;52.692;6.226;2023-07-16T16:38:26;21.90;81.90
51739;DHT22;37815;52.692;6.226;2023-07-16T16:43:27;21.90;82.30
51739;DHT22;37815;52.692;6.226;2023-07-16T16:48:28;21.80;82.50
51739;DHT22;37815;52.692;6.226;2023-07-16T16:53:31;21.70;82.70
51739;DHT22;37815;52.692;6.226;2023-07-16T16:58:31;21.70;83.10
51739;DHT22;37815;52.692;6.226;2023-07-16T17:03:32;21.70;83.30
51739;DHT22;37815;52.692;6.226;2023-07-16T17:08:32;21.70;83.40
51739;DHT22;37815;52.692;6.226;2023-07-16T17:13:33;21.70;83.50
51739;DHT22;37815;52.692;6.226;2023-07-16T17:18:34;21.70;83.60
51739;DHT22;37815;52.692;6.226;2023-07-16T17:23:34;21.80;83.70
51739;DHT22;37815;52.692;6.226;2023-07-16T17:28:36;21.70;83.80
51739;DHT22;37815;52.692;6.226;2023-07-16T17:33:36;21.80;83.90
51739;DHT22;37815;52.692;6.226;2023-07-16T17:38:37;21.80;84.00
51739;DHT22;37815;52.692;6.226;2023-07-16T17:43:38;21.80;84.00
51739;DHT22;37815;52.692;6.226;2023-07-16T17:48:38;21.80;84.20
51739;DHT22;37815;52.692;6.226;2023-07-16T17:53:39;21.80;84.20
51739;DHT22;37815;52.692;6.226;2023-07-16T17:58:40;21.80;84.30
51739;DHT22;37815;52.692;6.226;2023-07-16T18:03:41;21.80;84.30
51739;DHT22;37815;52.692;6.226;2023-07-16T18:08:41;21.80;84.30
51739;DHT22;37815;52.692;6.226;2023-07-16T18:13:42;21.70;84.50
51739;DHT22;37815;52.692;6.226;2023-07-16T18:18:43;21.70;84.50
51739;DHT22;37815;52.692;6.226;2023-07-16T18:23:43;21.80;84.70
51739;DHT22;37815;52.692;6.226;2023-07-16T18:28:44;21.70;84.70
51739;DHT22;37815;52.692;6.226;2023-07-16T18:33:45;21.70;84.80
51739;DHT22;37815;52.692;6.226;2023-07-16T18:38:45;21.70;85.00
51739;DHT22;37815;52.692;6.226;2023-07-16T18:43:46;21.70;85.00
51739;DHT22;37815;52.692;6.226;2023-07-16T18:48:47;21.70;85.00
51739;DHT22;37815;52.692;6.226;2023-07-16T18:53:47;21.60;85.00
51739;DHT22;37815;52.692;6.226;2023-07-16T18:58:48;21.70;85.10
51739;DHT22;37815;52.692;6.226;2023-07-16T19:03:48;21.60;85.10
51739;DHT22;37815;52.692;6.226;2023-07-16T19:08:51;21.70;85.20
51739;DHT22;37815;52.692;6.226;2023-07-16T19:13:52;21.60;85.30
51739;DHT22;37815;52.692;6.226;2023-07-16T19:18:53;21.60;85.40
51739;DHT22;37815;52.692;6.226;2023-07-16T19:23:54;21.60;85.40
51739;DHT22;37815;52.692;6.226;2023-07-16T19:28:55;21.50;85.50
51739;DHT22;37815;52.692;6.226;2023-07-16T19:33:56;21.50;85.50
51739;DHT22;37815;52.692;6.226;2023-07-16T19:38:56;21.50;85.60
51739;DHT22;37815;52.692;6.226;2023-07-16T19:43:57;21.50;85.70
51739;DHT22;37815;52.692;6.226;2023-07-16T19:48:59;21.50;85.80
51739;DHT22;37815;52.692;6.226;2023-07-16T19:53:59;21.40;85.80
51739;DHT22;37815;52.692;6.226;2023-07-16T19:59:00;21.40;85.90
51739;DHT22;37815;52.692;6.226;2023-07-16T20:04:00;21.40;86.00
51739;DHT22;37815;52.692;6.226;2023-07-16T20:09:01;21.40;86.00
51739;DHT22;37815;52.692;6.226;2023-07-16T20:14:05;21.30;86.10
51739;DHT22;37815;52.692;6.226;2023-07-16T20:19:05;21.30;86.10
51739;DHT22;37815;52.692;6.226;2023-07-16T20:24:06;21.30;86.20
51739;DHT22;37815;52.692;6.226;2023-07-16T20:29:07;21.30;86.30
51739;DHT22;37815;52.692;6.226;2023-07-16T20:34:08;21.30;86.30
51739;DHT22;37815;52.692;6.226;2023-07-16T20:39:08;21.20;86.30
51739;DHT22;37815;52.692;6.226;2023-07-16T20:44:10;21.20;86.30
51739;DHT22;37815;52.692;6.226;2023-07-16T20:49:11;21.20;86.40
51739;DHT22;37815;52.692;6.226;2023-07-16T20:54:11;21.10;86.30
51739;DHT22;37815;52.692;6.226;2023-07-16T20:59:12;21.10;86.30
51739;DHT22;37815;52.692;6.226;2023-07-16T21:04:13;21.10;86.40
51739;DHT22;37815;52.692;6.226;2023-07-16T21:09:13;21.10;86.40
51739;DHT22;37815;52.692;6.226;2023-07-16T21:14:14;21.10;86.40
51739;DHT22;37815;52.692;6.226;2023-07-16T21:19:15;21.10;86.40
51739;DHT22;37815;52.692;6.226;2023-07-16T21:24:15;21.10;86.50
51739;DHT22;37815;52.692;6.226;2023-07-16T21:29:16;21.00;86.50
51739;DHT22;37815;52.692;6.226;2023-07-16T21:34:17;21.00;86.50
51739;DHT22;37815;52.692;6.226;2023-07-16T21:39:17;21.00;86.50
51739;DHT22;37815;52.692;6.226;2023-07-16T21:44:18;21.00;86.60
51739;DHT22;37815;52.692;6.226;2023-07-16T21:49:18;21.00;86.80
51739;DHT22;37815;52.692;6.226;2023-07-16T21:54:19;21.00;86.80
51739;DHT22;37815;52.692;6.226;2023-07-16T21:59:20;21.00;87.00
51739;DHT22;37815;52.692;6.226;2023-07-16T22:04:21;20.90;87.00
51739;DHT22;37815;52.692;6.226;2023-07-16T22:09:22;20.90;87.10
51739;DHT22;37815;52.692;6.226;2023-07-16T22:14:23;20.90;87.20
51739;DHT22;37815;52.692;6.226;2023-07-16T22:19:23;20.90;87.30
51739;DHT22;37815;52.692;6.226;2023-07-16T22:24:24;20.90;87.30
51739;DHT22;37815;52.692;6.226;2023-07-16T22:29:25;20.90;87.40
51739;DHT22;37815;52.692;6.226;2023-07-16T22:34:25;20.80;87.30
51739;DHT22;37815;52.692;6.226;2023-07-16T22:39:26;20.80;87.30
51739;DHT22;37815;52.692;6.226;2023-07-16T22:44:26;20.80;87.30
51739;DHT22;37815;52.692;6.226;2023-07-16T22:49:27;20.80;87.30
51739;DHT22;37815;52.692;6.226;2023-07-16T22:54:28;20.80;87.30
51739;DHT22;37815;52.692;6.226;2023-07-16T22:59:28;20.80;87.30
51739;DHT22;37815;52.692;6.226;2023-07-16T23:04:29;20.70;87.20
51739;DHT22;37815;52.692;6.226;2023-07-16T23:09:29;20.70;87.10
51739;DHT22;37815;52.692;6.226;2023-07-16T23:14:30;20.70;87.10
51739;DHT22;37815;52.692;6.226;2023-07-16T23:19:34;20.70;87.10
51739;DHT22;37815;52.692;6.226;2023-07-16T23:24:35;20.70;87.00
51739;DHT22;37815;52.692;6.226;2023-07-16T23:29:38;20.70;87.00
51739;DHT22;37815;52.692;6.226;2023-07-16T23:34:38;20.70;86.90
51739;DHT22;37815;52.692;6.226;2023-07-16T23:39:39;20.70;87.00
51739;DHT22;37815;52.692;6.226;2023-07-16T23:44:40;20.60;86.90
51739;DHT22;37815;52.692;6.226;2023-07-16T23:49:41;20.60;86.90
51739;DHT22;37815;52.692;6.226;2023-07-16T23:54:41;20.60;86.90
51739;DHT22;37815;52.692;6.226;2023-07-16T23:59:42;20.60;86.90
